Time;durP1;ratioP1;P1;durP2;ratioP2;P2;SDS_P1;SDS_P2;PMS_P1;PMS_P2;Temp;Humidity;BMP_temperature;BMP_pressure;BME280_temperature;BME280_humidity;BME280_pressure;Samples;Min_cycle;Max_cycle;Signal;HPM_P1;HPM_P2
2021/10/14 00:00:20;;;;;;;17.80;16.00;;;5.00;99.90;;;;;;2669540;28;20213;-71
2021/10/14 00:01:39;;;;;;;17.13;15.53;;;4.90;99.90;;;;;;2669545;28;20240;-72
2021/10/14 00:02:57;;;;;;;16.10;14.40;;;4.90;99.90;;;;;;2669590;28;20481;-71
2021/10/14 00:04:15;;;;;;;16.17;14.50;;;4.80;99.90;;;;;;2669721;28;20198;-72
2021/10/14 00:05:33;;;;;;;16.10;14.50;;;4.80;99.90;;;;;;2668940;28;20256;-71
2021/10/14 00:06:51;;;;;;;17.60;15.13;;;4.70;99.90;;;;;;2669390;28;20198;-71
2021/10/14 00:08:11;;;;;;;18.88;14.70;;;4.70;99.90;;;;;;2669890;28;20210;-72
2021/10/14 00:09:29;;;;;;;14.07;12.73;;;4.70;99.90;;;;;;2669723;28;20364;-71
2021/10/14 00:10:48;;;;;;;16.00;14.40;;;4.70;99.90;;;;;;2670024;28;20289;-71
2021/10/14 00:12:06;;;;;;;14.38;13.02;;;4.60;99.90;;;;;;2668912;28;20225;-72
2021/10/14 00:13:23;;;;;;;14.65;13.25;;;4.60;99.90;;;;;;2671516;28;20206;-72
2021/10/14 00:14:42;;;;;;;14.97;13.17;;;4.60;99.90;;;;;;2668884;28;20345;-71
2021/10/14 00:15:59;;;;;;;15.73;14.15;;;4.60;99.90;;;;;;2669217;28;20625;-72
2021/10/14 00:17:18;;;;;;;15.40;13.57;;;4.70;99.90;;;;;;2669178;28;20214;-72
2021/10/14 00:18:35;;;;;;;15.05;13.50;;;4.70;99.90;;;;;;2663380;28;20222;-71
2021/10/14 00:19:54;;;;;;;14.30;12.80;;;4.70;99.90;;;;;;2668618;28;20203;-72
2021/10/14 00:21:12;;;;;;;19.35;15.35;;;4.70;99.90;;;;;;2668991;28;20280;-71
2021/10/14 00:22:30;;;;;;;17.60;14.27;;;4.70;99.90;;;;;;2666906;28;20222;-72
2021/10/14 00:23:48;;;;;;;15.43;13.93;;;4.70;99.90;;;;;;2669651;28;20596;-71
2021/10/14 00:25:07;;;;;;;15.10;13.68;;;4.70;99.90;;;;;;2668831;28;20206;-71
2021/10/14 00:26:24;;;;;;;17.38;15.25;;;4.70;99.90;;;;;;2665302;28;20202;-71
2021/10/14 00:27:43;;;;;;;16.50;14.80;;;4.70;99.90;;;;;;2672351;28;20771;-71
2021/10/14 00:29:00;;;;;;;17.27;15.48;;;4.60;99.90;;;;;;2668973;28;20194;-71
2021/10/14 00:30:19;;;;;;;15.93;13.83;;;4.60;99.90;;;;;;2669399;28;20198;-71
2021/10/14 00:31:37;;;;;;;15.35;13.85;;;4.70;99.90;;;;;;2669307;28;20206;-71
2021/10/14 00:32:55;;;;;;;14.98;13.57;;;4.70;99.90;;;;;;2669364;28;20533;-72
2021/10/14 00:34:13;;;;;;;17.93;15.03;;;4.70;99.90;;;;;;2668531;28;20276;-72
2021/10/14 00:35:32;;;;;;;16.42;14.73;;;4.70;99.90;;;;;;2669050;28;20210;-71
2021/10/14 00:36:50;;;;;;;18.58;16.48;;;4.70;99.90;;;;;;2668888;28;20198;-71
2021/10/14 00:38:08;;;;;;;21.27;17.05;;;4.70;99.90;;;;;;2668654;28;20202;-71
2021/10/14 00:39:26;;;;;;;17.47;15.67;;;4.70;99.90;;;;;;2668283;28;20226;-72
2021/10/14 00:40:44;;;;;;;17.20;15.48;;;4.70;99.90;;;;;;2661189;28;20211;-72
2021/10/14 00:42:02;;;;;;;20.90;16.13;;;4.70;99.90;;;;;;2669040;28;20722;-72
2021/10/14 00:43:20;;;;;;;16.85;15.15;;;4.60;99.90;;;;;;2672662;28;20197;-72
2021/10/14 00:44:38;;;;;;;17.63;15.83;;;4.60;99.90;;;;;;2668352;28;20352;-72
2021/10/14 00:45:57;;;;;;;17.85;16.15;;;4.60;99.90;;;;;;2665556;28;21053;-73
2021/10/14 00:47:15;;;;;;;17.25;15.45;;;4.60;99.90;;;;;;2669265;28;20664;-72
2021/10/14 00:48:33;;;;;;;17.10;15.30;;;4.60;99.90;;;;;;2669073;28;20264;-72
2021/10/14 00:49:52;;;;;;;20.73;14.90;;;4.60;99.90;;;;;;2669513;28;20264;-72
2021/10/14 00:51:10;;;;;;;18.38;15.57;;;4.60;99.90;;;;;;2668798;28;20260;-72
2021/10/14 00:52:29;;;;;;;16.10;14.50;;;4.60;99.90;;;;;;2668854;28;20210;-72
2021/10/14 00:53:47;;;;;;;16.20;14.60;;;4.60;99.90;;;;;;2669425;28;20257;-72
2021/10/14 00:55:05;;;;;;;16.87;15.27;;;4.60;99.90;;;;;;2668214;28;20265;-72
2021/10/14 00:56:23;;;;;;;17.63;15.32;;;4.70;99.90;;;;;;2671021;28;20195;-72
2021/10/14 00:57:41;;;;;;;17.77;14.10;;;4.70;99.90;;;;;;2669310;28;20206;-72
2021/10/14 00:59:00;;;;;;;16.73;15.23;;;4.70;99.90;;;;;;2668957;28;21064;-72
2021/10/14 01:00:19;;;;;;;17.13;15.43;;;4.70;99.90;;;;;;2662828;28;20199;-72
2021/10/14 01:01:36;;;;;;;19.30;15.95;;;4.80;99.90;;;;;;2668394;28;20270;-71
2021/10/14 01:02:55;;;;;;;15.10;13.70;;;4.80;99.90;;;;;;2668934;28;20198;-72
2021/10/14 01:04:12;;;;;;;16.00;14.30;;;4.80;99.90;;;;;;2669018;28;20839;-72
2021/10/14 01:05:31;;;;;;;16.13;14.47;;;4.80;99.90;;;;;;2667420;28;20198;-71
2021/10/14 01:06:50;;;;;;;16.63;14.70;;;4.80;99.90;;;;;;2668619;28;20656;-72
2021/10/14 01:08:07;;;;;;;16.00;14.35;;;4.90;99.90;;;;;;2668674;28;20446;-71
2021/10/14 01:09:26;;;;;;;16.00;14.47;;;4.90;99.90;;;;;;2668880;28;20232;-72
2021/10/14 01:10:43;;;;;;;14.93;13.50;;;4.90;99.90;;;;;;2664013;28;20206;-72
2021/10/14 01:12:02;;;;;;;14.00;12.70;;;4.90;99.90;;;;;;2668997;28;20250;-72
2021/10/14 01:13:20;;;;;;;14.70;13.30;;;4.90;99.90;;;;;;2663259;28;20303;-71
2021/10/14 01:14:39;;;;;;;14.52;13.02;;;4.90;99.90;;;;;;2661307;28;20221;-71
2021/10/14 01:15:56;;;;;;;14.18;12.68;;;4.90;99.90;;;;;;2669046;28;20256;-71
2021/10/14 01:17:15;;;;;;;14.90;13.40;;;4.90;99.90;;;;;;2669726;28;20280;-73
2021/10/14 01:18:33;;;;;;;14.98;13.48;;;4.90;99.90;;;;;;2675040;28;20737;-72
2021/10/14 01:19:52;;;;;;;15.00;13.43;;;4.80;99.90;;;;;;2669068;28;20198;-71
2021/10/14 01:21:10;;;;;;;14.50;13.00;;;4.80;99.90;;;;;;2668087;28;20292;-72
2021/10/14 01:22:28;;;;;;;14.38;12.98;;;4.70;99.90;;;;;;2669278;28;20199;-71
2021/10/14 01:23:46;;;;;;;13.53;12.30;;;4.70;99.90;;;;;;2668318;28;22109;-71
2021/10/14 01:25:04;;;;;;;14.38;13.05;;;4.70;99.90;;;;;;2666834;28;20218;-72
2021/10/14 01:26:22;;;;;;;13.53;12.17;;;4.60;99.90;;;;;;2668460;28;20283;-72
2021/10/14 01:27:41;;;;;;;14.80;12.07;;;4.60;99.90;;;;;;2666617;28;20515;-71
2021/10/14 01:28:59;;;;;;;12.95;11.85;;;4.60;99.90;;;;;;2662632;28;20190;-72
2021/10/14 01:30:17;;;;;;;15.30;12.93;;;4.60;99.90;;;;;;2669163;28;20293;-71
2021/10/14 01:31:36;;;;;;;12.43;11.20;;;4.50;99.90;;;;;;2667988;28;20253;-72
2021/10/14 01:32:55;;;;;;;13.57;12.27;;;4.50;99.90;;;;;;2669039;28;20210;-71
2021/10/14 01:34:12;;;;;;;14.70;13.30;;;4.50;99.90;;;;;;2667780;28;20222;-71
2021/10/14 01:35:31;;;;;;;16.17;14.67;;;4.60;99.90;;;;;;2673212;28;20203;-72
2021/10/14 01:36:48;;;;;;;14.38;12.98;;;4.60;99.90;;;;;;2668989;28;20194;-71
2021/10/14 01:38:06;;;;;;;14.53;13.13;;;4.60;99.90;;;;;;2663020;28;20206;-71
2021/10/14 01:39:24;;;;;;;16.00;14.43;;;4.60;99.90;;;;;;2662174;28;20590;-72
2021/10/14 01:40:42;;;;;;;16.67;14.07;;;4.60;99.90;;;;;;2668394;28;20308;-72
2021/10/14 01:42:00;;;;;;;16.23;14.70;;;4.60;99.90;;;;;;2668893;28;20252;-71
2021/10/14 01:43:20;;;;;;;17.37;15.60;;;4.60;99.90;;;;;;2668677;28;20229;-72
2021/10/14 01:44:38;;;;;;;17.10;15.30;;;4.60;99.90;;;;;;2664804;28;20257;-72
2021/10/14 01:45:57;;;;;;;19.13;16.40;;;4.60;99.90;;;;;;2668536;28;20245;-70
2021/10/14 01:47:14;;;;;;;15.70;14.07;;;4.60;99.90;;;;;;2670870;28;20233;-72
2021/10/14 01:48:33;;;;;;;16.47;14.70;;;4.60;99.90;;;;;;2670574;28;20226;-72
2021/10/14 01:49:50;;;;;;;16.75;15.05;;;4.60;99.90;;;;;;2672321;28;20248;-71
2021/10/14 01:51:09;;;;;;;16.13;14.63;;;4.60;99.90;;;;;;2668598;28;20678;-71
2021/10/14 01:52:26;;;;;;;15.05;13.68;;;4.60;99.90;;;;;;2668309;28;20468;-71
2021/10/14 01:53:45;;;;;;;17.63;14.53;;;4.70;99.90;;;;;;2664300;28;20217;-71
2021/10/14 01:55:02;;;;;;;17.23;15.35;;;4.70;99.90;;;;;;2667805;28;20548;-71
2021/10/14 01:56:21;;;;;;;16.07;14.37;;;4.60;99.90;;;;;;2668121;28;20252;-72
2021/10/14 01:57:39;;;;;;;15.25;13.65;;;4.60;99.90;;;;;;2668382;28;20256;-72
2021/10/14 01:58:57;;;;;;;16.17;14.68;;;4.50;99.90;;;;;;2668305;28;20202;-72
2021/10/14 02:00:15;;;;;;;18.23;16.43;;;4.50;99.90;;;;;;2668552;28;20317;-72
2021/10/14 02:01:33;;;;;;;16.52;14.93;;;4.50;99.90;;;;;;2668432;28;20587;-73
2021/10/14 02:02:51;;;;;;;17.53;14.63;;;4.40;99.90;;;;;;2668745;28;20200;-72
2021/10/14 02:04:10;;;;;;;18.98;16.08;;;4.40;99.90;;;;;;2668004;28;20225;-71
2021/10/14 02:05:28;;;;;;;18.63;15.88;;;4.40;99.90;;;;;;2669674;28;20259;-72
2021/10/14 02:06:47;;;;;;;17.25;15.55;;;4.30;99.90;;;;;;2668213;28;20206;-72
2021/10/14 02:08:04;;;;;;;15.85;14.20;;;4.30;99.90;;;;;;2671338;28;20214;-72
2021/10/14 02:09:23;;;;;;;16.73;14.93;;;4.30;99.90;;;;;;2668388;28;20194;-71
2021/10/14 02:10:41;;;;;;;18.80;16.80;;;4.20;99.90;;;;;;2664970;28;20647;-71
2021/10/14 02:12:00;;;;;;;18.55;15.60;;;4.30;99.90;;;;;;2667978;28;20699;-71
2021/10/14 02:13:17;;;;;;;16.95;15.35;;;4.30;99.90;;;;;;2662743;28;20203;-71
2021/10/14 02:14:36;;;;;;;15.87;14.27;;;4.30;99.90;;;;;;2667894;28;20288;-71
2021/10/14 02:15:53;;;;;;;15.98;14.57;;;4.40;99.90;;;;;;2668436;28;20256;-71
2021/10/14 02:17:12;;;;;;;16.40;14.77;;;4.30;99.90;;;;;;2668324;28;20206;-73
2021/10/14 02:18:29;;;;;;;16.35;14.65;;;4.40;99.90;;;;;;2668323;28;20238;-71
2021/10/14 02:19:48;;;;;;;15.43;14.00;;;4.30;99.90;;;;;;2669995;28;20201;-71
2021/10/14 02:21:05;;;;;;;15.82;14.10;;;4.30;99.90;;;;;;2667966;28;20208;-71
2021/10/14 02:22:24;;;;;;;17.00;14.73;;;4.20;99.90;;;;;;2668314;28;20960;-71
2021/10/14 02:23:42;;;;;;;16.52;14.88;;;4.20;99.90;;;;;;2667838;28;20252;-71
2021/10/14 02:25:00;;;;;;;16.85;14.25;;;4.20;99.90;;;;;;2667595;28;20747;-71
2021/10/14 02:26:18;;;;;;;16.50;14.83;;;4.20;99.90;;;;;;2668572;28;20206;-71
2021/10/14 02:27:37;;;;;;;17.10;14.30;;;4.20;99.90;;;;;;2668149;28;20232;-72
2021/10/14 02:28:55;;;;;;;13.73;12.48;;;4.10;99.90;;;;;;2668731;28;20242;-71
2021/10/14 02:30:14;;;;;;;15.52;13.90;;;4.10;99.90;;;;;;2670860;28;20206;-71
2021/10/14 02:31:32;;;;;;;13.35;11.95;;;4.20;99.90;;;;;;2670547;28;20718;-71
2021/10/14 02:32:50;;;;;;;15.07;13.67;;;4.20;99.90;;;;;;2669825;28;20237;-71
2021/10/14 02:34:08;;;;;;;13.88;12.40;;;4.20;99.90;;;;;;2664817;28;20635;-72
2021/10/14 02:35:26;;;;;;;14.27;12.87;;;4.20;99.90;;;;;;2670252;28;20293;-71
2021/10/14 02:36:45;;;;;;;14.38;12.98;;;4.10;99.90;;;;;;2665743;28;20210;-72
2021/10/14 02:38:02;;;;;;;15.27;13.45;;;4.10;99.90;;;;;;2670115;28;20202;-71
2021/10/14 02:39:21;;;;;;;15.40;13.77;;;4.00;99.90;;;;;;2670508;28;20652;-71
2021/10/14 02:40:38;;;;;;;16.13;14.02;;;4.00;99.90;;;;;;2670188;28;20202;-72
2021/10/14 02:41:57;;;;;;;14.70;13.20;;;4.00;99.90;;;;;;2670565;28;20312;-71
2021/10/14 02:43:14;;;;;;;15.32;13.48;;;4.00;99.90;;;;;;2673447;28;20199;-72
2021/10/14 02:44:33;;;;;;;14.30;12.30;;;4.00;99.90;;;;;;2669468;28;20205;-71
2021/10/14 02:45:50;;;;;;;16.23;14.63;;;4.10;99.90;;;;;;2669706;28;20202;-72
2021/10/14 02:47:09;;;;;;;19.80;13.73;;;4.00;99.90;;;;;;2670179;28;20655;-71
2021/10/14 02:48:27;;;;;;;14.85;13.38;;;3.90;99.90;;;;;;2669965;28;20652;-72
2021/10/14 02:49:46;;;;;;;17.92;14.02;;;4.00;99.90;;;;;;2668201;28;20257;-72
2021/10/14 02:51:03;;;;;;;16.85;14.60;;;4.00;99.90;;;;;;2668645;28;20206;-72
2021/10/14 02:52:22;;;;;;;16.90;13.90;;;3.90;99.90;;;;;;2668983;28;20234;-72
2021/10/14 02:53:40;;;;;;;18.05;13.60;;;3.90;99.90;;;;;;2661570;28;20211;-71
2021/10/14 02:54:58;;;;;;;16.65;14.95;;;4.00;99.90;;;;;;2668228;28;20786;-72
2021/10/14 02:56:16;;;;;;;16.80;15.03;;;4.00;99.90;;;;;;2669354;28;20198;-72
2021/10/14 02:57:35;;;;;;;15.90;14.38;;;4.00;99.90;;;;;;2670449;28;20761;-72
2021/10/14 02:58:53;;;;;;;17.38;15.65;;;4.00;99.90;;;;;;2672566;28;20725;-72
2021/10/14 03:00:11;;;;;;;16.02;14.32;;;4.00;99.90;;;;;;2670247;28;20790;-71
2021/10/14 03:01:29;;;;;;;17.10;15.40;;;4.00;99.90;;;;;;2670205;28;20229;-72
2021/10/14 03:02:48;;;;;;;19.48;16.35;;;3.90;99.90;;;;;;2669803;28;20202;-71
2021/10/14 03:04:05;;;;;;;16.27;14.55;;;4.00;99.90;;;;;;2667785;28;20197;-72
2021/10/14 03:05:24;;;;;;;17.33;15.63;;;3.90;99.90;;;;;;2669993;28;20318;-71
2021/10/14 03:06:42;;;;;;;17.17;14.18;;;3.90;99.90;;;;;;2669952;28;20194;-71
2021/10/14 03:08:00;;;;;;;15.73;14.13;;;3.90;99.90;;;;;;2669980;28;20213;-72
2021/10/14 03:09:18;;;;;;;17.90;15.63;;;3.90;99.90;;;;;;2672432;28;20280;-72
2021/10/14 03:10:36;;;;;;;17.30;15.55;;;3.90;99.90;;;;;;2671163;28;20203;-72
2021/10/14 03:11:54;;;;;;;16.30;14.60;;;3.90;99.90;;;;;;2670620;28;20190;-71
2021/10/14 03:13:13;;;;;;;15.88;13.93;;;3.90;99.90;;;;;;2664574;28;20453;-71
2021/10/14 03:14:30;;;;;;;17.33;15.52;;;3.90;99.90;;;;;;2667849;28;20672;-71
2021/10/14 03:15:49;;;;;;;15.90;14.33;;;4.00;99.90;;;;;;2670321;28;20205;-72
2021/10/14 03:17:09;;;;;;;16.45;14.00;;;3.90;99.90;;;;;;2670421;28;20198;-72
2021/10/14 03:18:26;;;;;;;17.92;16.05;;;3.90;99.90;;;;;;2669741;28;20202;-71
2021/10/14 03:19:45;;;;;;;16.50;14.70;;;3.90;99.90;;;;;;2669887;28;20654;-72
2021/10/14 03:21:02;;;;;;;15.95;14.35;;;4.00;99.90;;;;;;2670072;28;20934;-71
2021/10/14 03:22:21;;;;;;;15.57;14.03;;;4.00;99.90;;;;;;2669757;28;20320;-71
2021/10/14 03:23:39;;;;;;;15.38;13.77;;;4.00;99.90;;;;;;2669837;28;20194;-71
2021/10/14 03:24:57;;;;;;;15.50;13.90;;;4.00;99.90;;;;;;2668254;28;20229;-71
2021/10/14 03:26:15;;;;;;;15.47;13.87;;;4.20;99.90;;;;;;2669268;28;20297;-72
2021/10/14 03:27:33;;;;;;;16.27;14.65;;;4.20;99.90;;;;;;2670008;28;20209;-72
2021/10/14 03:28:53;;;;;;;14.37;12.90;;;4.30;99.90;;;;;;2670054;28;20679;-71
2021/10/14 03:30:12;;;;;;;15.98;14.30;;;4.30;99.90;;;;;;2669277;28;20210;-71
2021/10/14 03:31:29;;;;;;;15.57;14.07;;;4.30;99.90;;;;;;2669984;28;20198;-72
2021/10/14 03:32:47;;;;;;;14.87;13.37;;;4.40;99.90;;;;;;2670044;28;20305;-71
2021/10/14 03:34:05;;;;;;;15.57;13.82;;;4.30;99.90;;;;;;2669326;28;20268;-71
2021/10/14 03:35:23;;;;;;;14.83;13.33;;;4.30;99.90;;;;;;2669756;28;20242;-72
2021/10/14 03:36:42;;;;;;;15.60;14.00;;;4.30;99.90;;;;;;2669461;28;20199;-71
2021/10/14 03:38:01;;;;;;;14.65;13.15;;;4.30;99.90;;;;;;2673377;28;20221;-71
2021/10/14 03:39:20;;;;;;;15.63;12.00;;;4.30;99.90;;;;;;2669677;28;20224;-71
2021/10/14 03:40:38;;;;;;;14.65;13.25;;;4.30;99.90;;;;;;2668886;28;20671;-72
2021/10/14 03:41:57;;;;;;;14.80;13.38;;;4.30;99.90;;;;;;2669355;28;20645;-72
2021/10/14 03:43:14;;;;;;;13.93;12.50;;;4.20;99.90;;;;;;2670075;28;20206;-72
2021/10/14 03:44:33;;;;;;;13.97;12.67;;;4.20;99.90;;;;;;2669323;28;20198;-72
2021/10/14 03:45:51;;;;;;;13.00;11.75;;;4.20;99.90;;;;;;2669974;28;20198;-72
2021/10/14 03:47:09;;;;;;;14.57;13.00;;;4.20;99.90;;;;;;2669878;28;20221;-71
2021/10/14 03:48:27;;;;;;;14.00;12.70;;;4.10;99.90;;;;;;2669877;28;20656;-71
2021/10/14 03:49:46;;;;;;;14.90;12.80;;;4.10;99.90;;;;;;2677762;28;20201;-72
2021/10/14 03:51:04;;;;;;;13.18;11.77;;;4.10;99.90;;;;;;2669814;28;20872;-72
2021/10/14 03:52:23;;;;;;;12.52;11.25;;;4.00;99.90;;;;;;2669868;28;20633;-72
2021/10/14 03:53:42;;;;;;;15.20;12.10;;;4.00;99.90;;;;;;2669185;28;20203;-72
2021/10/14 03:54:59;;;;;;;14.27;12.25;;;3.90;99.90;;;;;;2668873;28;20617;-71
2021/10/14 03:56:18;;;;;;;15.23;13.47;;;3.90;99.90;;;;;;2669107;28;20206;-71
2021/10/14 03:57:35;;;;;;;13.32;11.93;;;3.90;99.90;;;;;;2667782;28;20202;-72
2021/10/14 03:58:53;;;;;;;29.30;12.97;;;3.80;99.90;;;;;;2669314;28;20633;-72
2021/10/14 04:00:12;;;;;;;14.00;12.70;;;3.70;99.90;;;;;;2669829;28;20195;-72
2021/10/14 04:01:30;;;;;;;14.27;12.82;;;3.60;99.90;;;;;;2677037;28;20210;-72
2021/10/14 04:02:49;;;;;;;13.05;11.65;;;3.60;99.90;;;;;;2669648;28;20230;-72
2021/10/14 04:04:07;;;;;;;14.75;13.35;;;3.60;99.90;;;;;;2671483;28;20261;-72
2021/10/14 04:05:26;;;;;;;15.13;12.35;;;3.60;99.90;;;;;;2668785;28;20209;-72
2021/10/14 04:06:43;;;;;;;13.02;11.73;;;3.60;99.90;;;;;;2677510;28;20259;-72
2021/10/14 04:08:02;;;;;;;15.13;12.80;;;3.70;99.90;;;;;;2669644;28;20230;-72
2021/10/14 04:09:19;;;;;;;14.35;12.88;;;3.80;99.90;;;;;;2669614;28;20209;-72
2021/10/14 04:10:38;;;;;;;14.50;13.00;;;3.70;99.90;;;;;;2669348;28;20202;-72
2021/10/14 04:11:55;;;;;;;13.85;12.45;;;3.70;99.90;;;;;;2669780;28;20191;-71
2021/10/14 04:13:14;;;;;;;14.27;12.77;;;3.60;99.90;;;;;;2669224;28;20202;-72
2021/10/14 04:14:33;;;;;;;14.07;12.63;;;3.60;99.90;;;;;;2668874;28;20206;-72
2021/10/14 04:15:51;;;;;;;15.15;13.63;;;3.60;99.90;;;;;;2669079;28;20222;-72
2021/10/14 04:17:10;;;;;;;14.88;13.45;;;3.60;99.90;;;;;;2669567;28;20671;-72
2021/10/14 04:18:28;;;;;;;13.60;12.30;;;3.70;99.90;;;;;;2669293;28;20813;-73
2021/10/14 04:19:47;;;;;;;13.80;12.40;;;3.70;99.90;;;;;;2669389;28;20729;-72
2021/10/14 04:21:05;;;;;;;14.68;12.52;;;3.70;99.90;;;;;;2669278;28;20626;-72
2021/10/14 04:22:24;;;;;;;15.23;13.38;;;3.70;99.90;;;;;;2669598;28;20316;-72
2021/10/14 04:23:44;;;;;;;13.75;12.45;;;3.70;99.90;;;;;;2669287;28;20269;-72
2021/10/14 04:25:02;;;;;;;13.63;12.15;;;3.80;99.90;;;;;;2667479;28;20206;-72
2021/10/14 04:26:20;;;;;;;14.23;12.88;;;3.90;99.90;;;;;;2668858;28;20207;-72
2021/10/14 04:27:38;;;;;;;13.00;11.70;;;4.10;99.90;;;;;;2668858;28;20594;-72
2021/10/14 04:28:57;;;;;;;13.50;12.20;;;4.10;99.90;;;;;;2666884;28;20203;-71
2021/10/14 04:30:14;;;;;;;14.32;12.93;;;4.10;99.90;;;;;;2669653;28;20202;-72
2021/10/14 04:31:33;;;;;;;13.73;12.43;;;4.10;99.90;;;;;;2669337;28;20292;-72
2021/10/14 04:32:52;;;;;;;13.27;11.88;;;4.10;99.90;;;;;;2669015;28;20676;-71
2021/10/14 04:34:10;;;;;;;14.15;12.65;;;4.00;99.90;;;;;;2668404;28;20198;-73
2021/10/14 04:35:29;;;;;;;14.35;12.93;;;4.00;99.90;;;;;;2673291;28;20206;-72
2021/10/14 04:36:47;;;;;;;14.57;12.05;;;4.00;99.90;;;;;;2669624;28;20707;-72
2021/10/14 04:38:06;;;;;;;14.57;13.10;;;4.00;99.90;;;;;;2674407;28;20198;-72
2021/10/14 04:39:24;;;;;;;14.63;12.98;;;4.10;99.90;;;;;;2666749;28;20210;-72
2021/10/14 04:40:43;;;;;;;13.25;11.88;;;4.00;99.90;;;;;;2669392;28;20201;-73
2021/10/14 04:42:00;;;;;;;13.88;12.48;;;4.10;99.90;;;;;;2669172;28;20261;-72
2021/10/14 04:43:19;;;;;;;16.17;13.97;;;4.10;99.90;;;;;;2669436;28;20253;-72
2021/10/14 04:44:37;;;;;;;14.40;11.68;;;4.10;99.90;;;;;;2668366;28;20903;-72
2021/10/14 04:45:55;;;;;;;14.00;12.43;;;4.10;99.90;;;;;;2669409;28;20210;-72
2021/10/14 04:47:18;;;;;;;14.13;12.73;;;4.10;99.90;;;;;;2669329;28;21071;-72
2021/10/14 04:48:37;;;;;;;14.38;12.90;;;4.10;99.90;;;;;;2668770;28;20229;-71
2021/10/14 04:49:54;;;;;;;13.27;12.07;;;4.30;99.90;;;;;;2668738;28;20202;-72
2021/10/14 04:51:12;;;;;;;14.10;12.50;;;4.30;99.90;;;;;;2669092;28;20369;-72
2021/10/14 04:52:30;;;;;;;14.27;12.75;;;4.30;99.90;;;;;;2668972;28;20264;-72
2021/10/14 04:53:49;;;;;;;14.93;13.40;;;4.30;99.90;;;;;;2668756;28;20279;-73
2021/10/14 04:55:06;;;;;;;12.82;11.60;;;4.30;99.90;;;;;;2668357;28;20449;-72
2021/10/14 04:56:24;;;;;;;14.47;12.90;;;4.20;99.90;;;;;;2669141;28;20252;-72
2021/10/14 04:57:43;;;;;;;12.75;11.45;;;4.20;99.90;;;;;;2671135;28;20264;-72
2021/10/14 04:59:02;;;;;;;13.40;11.98;;;4.30;99.90;;;;;;2668552;28;20198;-72
2021/10/14 05:00:20;;;;;;;14.25;12.70;;;4.30;99.90;;;;;;2670656;28;20785;-72
2021/10/14 05:01:39;;;;;;;14.98;12.18;;;4.40;99.90;;;;;;2669446;28;20202;-72
2021/10/14 05:02:56;;;;;;;12.88;11.68;;;4.40;99.90;;;;;;2667141;28;20248;-72
2021/10/14 05:04:15;;;;;;;12.37;11.00;;;4.50;99.90;;;;;;2668637;28;20198;-72
2021/10/14 05:05:33;;;;;;;14.73;11.77;;;4.50;99.90;;;;;;2669309;28;20652;-72
2021/10/14 05:06:52;;;;;;;14.13;12.68;;;4.50;99.90;;;;;;2669211;28;20548;-72
2021/10/14 05:08:10;;;;;;;13.73;11.75;;;4.50;99.90;;;;;;2672684;28;20551;-72
2021/10/14 05:09:29;;;;;;;12.88;11.02;;;4.40;99.90;;;;;;2669164;28;20670;-71
2021/10/14 05:10:47;;;;;;;14.05;12.65;;;4.40;99.90;;;;;;2669214;28;20213;-72
2021/10/14 05:12:06;;;;;;;11.82;10.73;;;4.40;99.90;;;;;;2672736;28;20202;-72
2021/10/14 05:13:24;;;;;;;12.40;11.20;;;4.50;99.90;;;;;;2668717;28;20198;-72
2021/10/14 05:14:43;;;;;;;13.30;11.82;;;4.50;99.90;;;;;;2668534;28;20244;-71
2021/10/14 05:16:01;;;;;;;12.57;11.27;;;4.40;99.90;;;;;;2668896;28;20656;-71
2021/10/14 05:17:19;;;;;;;13.32;11.98;;;4.50;99.90;;;;;;2668974;28;20233;-72
2021/10/14 05:18:38;;;;;;;13.90;12.00;;;4.50;99.90;;;;;;2667364;28;20244;-72
2021/10/14 05:19:55;;;;;;;13.25;11.85;;;4.50;99.90;;;;;;2668701;28;20202;-72
2021/10/14 05:21:14;;;;;;;15.97;11.97;;;4.50;99.90;;;;;;2668850;28;20226;-72
2021/10/14 05:22:31;;;;;;;14.80;12.25;;;4.50;99.90;;;;;;2665980;28;20506;-71
2021/10/14 05:23:49;;;;;;;11.73;10.70;;;4.40;99.90;;;;;;2665497;28;20814;-72
2021/10/14 05:25:08;;;;;;;14.57;13.00;;;4.50;99.90;;;;;;2667985;28;20668;-72
2021/10/14 05:26:27;;;;;;;12.25;11.05;;;4.40;99.90;;;;;;2665660;28;20700;-71
2021/10/14 05:27:45;;;;;;;13.57;12.15;;;4.50;99.90;;;;;;2660748;28;20203;-72
2021/10/14 05:29:03;;;;;;;12.15;11.05;;;4.50;99.90;;;;;;2668573;28;20252;-72
2021/10/14 05:30:21;;;;;;;12.90;11.60;;;4.50;99.90;;;;;;2668913;28;20303;-70
2021/10/14 05:31:40;;;;;;;14.57;11.30;;;4.50;99.90;;;;;;2667842;28;20963;-69
2021/10/14 05:33:00;;;;;;;13.57;11.75;;;4.50;99.90;;;;;;2667348;28;20198;-70
2021/10/14 05:34:18;;;;;;;12.77;11.48;;;4.50;99.90;;;;;;2664783;28;20199;-69
2021/10/14 05:35:37;;;;;;;12.32;10.55;;;4.40;99.90;;;;;;2668576;28;20210;-70
2021/10/14 05:36:56;;;;;;;13.82;12.27;;;4.50;99.90;;;;;;2668561;28;20599;-70
2021/10/14 05:38:14;;;;;;;13.40;12.02;;;4.40;99.90;;;;;;2669582;28;20202;-69
2021/10/14 05:39:33;;;;;;;12.25;11.05;;;4.50;99.90;;;;;;2668883;28;20260;-69
2021/10/14 05:40:50;;;;;;;13.13;11.82;;;4.50;99.90;;;;;;2668501;28;20198;-70
2021/10/14 05:42:09;;;;;;;12.60;11.40;;;4.50;99.90;;;;;;2668527;28;20283;-69
2021/10/14 05:43:27;;;;;;;13.05;11.75;;;4.50;99.90;;;;;;2668674;28;20240;-70
2021/10/14 05:44:46;;;;;;;12.68;11.48;;;4.50;99.90;;;;;;2672749;28;20262;-70
2021/10/14 05:46:03;;;;;;;12.68;11.32;;;4.60;99.90;;;;;;2668180;28;20256;-70
2021/10/14 05:47:22;;;;;;;12.10;10.83;;;4.60;99.90;;;;;;2669185;28;20283;-69
2021/10/14 05:48:40;;;;;;;12.10;11.00;;;4.50;99.90;;;;;;2668006;28;20453;-70
2021/10/14 05:49:59;;;;;;;12.10;10.98;;;4.60;99.90;;;;;;2665770;28;20198;-70
2021/10/14 05:51:17;;;;;;;12.70;11.57;;;4.60;99.90;;;;;;2668841;28;20313;-70
2021/10/14 05:52:36;;;;;;;12.20;10.98;;;4.50;99.90;;;;;;2666730;28;20191;-70
2021/10/14 05:53:54;;;;;;;12.57;11.27;;;4.50;99.90;;;;;;2668347;28;20276;-69
2021/10/14 05:55:12;;;;;;;12.45;11.25;;;4.50;99.90;;;;;;2668190;28;20679;-70
2021/10/14 05:56:30;;;;;;;11.80;10.70;;;4.60;99.90;;;;;;2668693;28;20525;-70
2021/10/14 05:57:48;;;;;;;14.05;11.25;;;4.60;99.90;;;;;;2668517;28;20260;-70
2021/10/14 05:59:06;;;;;;;12.63;11.43;;;4.50;99.90;;;;;;2668441;28;20281;-69
2021/10/14 06:00:25;;;;;;;12.75;11.55;;;4.60;99.90;;;;;;2668324;28;20221;-70
2021/10/14 06:01:44;;;;;;;12.05;10.85;;;4.60;99.90;;;;;;2668833;28;20206;-69
2021/10/14 06:03:02;;;;;;;11.98;10.88;;;4.50;99.90;;;;;;2675771;28;20730;-70
2021/10/14 06:04:21;;;;;;;12.07;10.77;;;4.60;99.90;;;;;;2670079;28;20776;-70
2021/10/14 06:05:40;;;;;;;12.05;11.05;;;4.60;99.90;;;;;;2661564;28;20662;-69
2021/10/14 06:06:57;;;;;;;12.50;11.30;;;4.70;99.90;;;;;;2672191;28;20288;-71
2021/10/14 06:08:17;;;;;;;12.07;10.87;;;4.70;99.90;;;;;;2673859;28;20400;-71
2021/10/14 06:09:35;;;;;;;10.82;9.80;;;4.70;99.90;;;;;;2670065;28;20206;-70
2021/10/14 06:10:54;;;;;;;11.93;10.82;;;4.70;99.90;;;;;;2669159;28;20194;-70
2021/10/14 06:12:11;;;;;;;10.63;9.60;;;4.70;99.90;;;;;;2668748;28;20194;-70
2021/10/14 06:13:30;;;;;;;12.30;10.20;;;4.70;99.90;;;;;;2676460;28;20371;-70
2021/10/14 06:14:47;;;;;;;12.55;10.80;;;4.70;99.90;;;;;;2668356;28;20210;-72
2021/10/14 06:16:06;;;;;;;10.73;9.63;;;4.80;99.90;;;;;;2666744;28;20921;-70
2021/10/14 06:17:24;;;;;;;12.00;10.80;;;4.90;99.90;;;;;;2667218;28;20552;-70
2021/10/14 06:18:43;;;;;;;12.27;11.18;;;4.80;99.90;;;;;;2666102;28;20206;-69
2021/10/14 06:20:01;;;;;;;11.10;9.80;;;4.90;99.90;;;;;;2667161;28;20194;-70
2021/10/14 06:21:20;;;;;;;10.63;9.48;;;4.90;99.90;;;;;;2667239;28;20271;-69
2021/10/14 06:22:38;;;;;;;11.43;10.35;;;5.00;99.90;;;;;;2659843;28;20206;-70
2021/10/14 06:23:57;;;;;;;12.38;11.18;;;4.90;99.90;;;;;;2667418;28;20202;-69
2021/10/14 06:25:16;;;;;;;11.98;10.77;;;4.90;99.90;;;;;;2666971;28;20264;-70
2021/10/14 06:26:34;;;;;;;13.43;10.70;;;4.90;99.90;;;;;;2667193;28;20209;-70
2021/10/14 06:27:53;;;;;;;11.55;10.38;;;5.00;99.90;;;;;;2668373;28;20206;-69
2021/10/14 06:29:11;;;;;;;12.23;11.02;;;5.00;99.90;;;;;;2667195;28;20202;-70
2021/10/14 06:30:32;;;;;;;11.90;10.70;;;5.00;99.90;;;;;;2668330;28;20257;-70
2021/10/14 06:31:50;;;;;;;12.25;11.05;;;5.00;99.90;;;;;;2671679;28;20645;-70
2021/10/14 06:33:09;;;;;;;11.38;10.23;;;5.10;99.90;;;;;;2669661;28;20749;-69
2021/10/14 06:34:28;;;;;;;11.50;10.40;;;5.10;99.90;;;;;;2670097;28;20206;-70
2021/10/14 06:35:45;;;;;;;10.23;9.23;;;5.20;99.90;;;;;;2666888;28;20214;-70
2021/10/14 06:37:03;;;;;;;12.53;11.43;;;5.30;99.90;;;;;;2667601;28;20653;-71
2021/10/14 06:38:22;;;;;;;11.70;10.60;;;5.20;99.90;;;;;;2667088;28;20213;-69
2021/10/14 06:39:41;;;;;;;10.40;9.35;;;5.20;99.90;;;;;;2667567;28;20679;-70
2021/10/14 06:40:59;;;;;;;10.65;9.60;;;5.10;99.90;;;;;;2668313;28;20567;-70
2021/10/14 06:42:16;;;;;;;11.57;10.40;;;5.00;99.90;;;;;;2668559;28;20579;-70